Cala Paguro — D5KY9 — position and weather

sailwx.info

Track history (hours):
 
Tides and Currents Weather Stations Pressure Air Temp Water Temp Dewpoint Dewpoint Depression Visibility Wind Speed Wind Dir Waves Ship Positions

Cala Paguro

Last reported at 2018-Jan-09 23:33 UTC. Time now 2018-Jan-19 13:33 UTC.
Position N 04°54' W 001°04'.
Warning: this ship's position is 9 days out of date.

Length 172 m; draft 7.5 m.

Type: Cargo ship. MMSI: 636017440.

Date/timePositionNaut miles runAvg speedWind from/ knotsBaromVisibWave heightAir tempDewpointWater temp
2018-Jan-09 23:33N 04°54' W 001°04'216.4
2018-Jan-09 23:27N 04°55' W 001°02'1416.2
2018-Jan-09 22:35N 04°59' W 000°49'416.0
2018-Jan-09 22:20N 05°00' W 000°45'516.1
2018-Jan-09 22:00N 05°02' W 000°40'1716.1
2018-Jan-09 20:55N 05°09' W 000°24'716.2
2018-Jan-09 20:30N 05°14' W 000°19'816.3
2018-Jan-09 20:00N 05°19' W 000°13'816.5
2018-Jan-09 19:30N 05°23' W 000°06'816.7
2018-Jan-09 19:00N 05°28' E 000°01'816.6
2018-Jan-09 18:30N 05°31' E 000°09'816.6
2018-Jan-09 18:01N 05°34' E 000°17'816.8
2018-Jan-09 17:30N 05°34' E 000°25'917.0
2018-Jan-09 17:00N 05°34' E 000°34'917.1
2018-Jan-09 16:30N 05°34' E 000°42'917.1
2018-Jan-09 15:57N 05°34' E 000°52'1216.9
2018-Jan-09 15:16N 05°37' E 001°03'616.9
2018-Jan-09 14:55N 05°39' E 001°09'817.6
2018-Jan-09 14:28N 05°42' E 001°16'1617.9
2018-Jan-09 13:34N 05°48' E 001°31'218.2
2018-Jan-09 13:26N 05°49' E 001°34'818.2
2018-Jan-09 12:59N 05°52' E 001°41'3118.3
2018-Jan-09 11:17N 06°04' E 002°10'918.5
2018-Jan-09 10:47N 06°07' E 002°19'15 1.3
2018-Jan-08 23:32N 06°21' E 002°25'0 0.0
2018-Jan-08 23:20N 06°21' E 002°25'0 0.0
2018-Jan-08 18:50N 06°21' E 002°25'0 0.0
2018-Jan-08 18:26N 06°21' E 002°25'0 0.0
2018-Jan-08 17:02N 06°21' E 002°25'0 0.0
2018-Jan-08 16:56N 06°21' E 002°25'10 0.9
2018-Jan-08 05:46N 06°11' E 002°27'8612.1
2018-Jan-07 22:40N 05°37' E 001°08'717.7
2018-Jan-07 22:15N 05°36' E 001°00'917.7
2018-Jan-07 21:45N 05°36' E 000°51'517.7
2018-Jan-07 21:27N 05°35' E 000°46'818.1
2018-Jan-07 20:59N 05°34' E 000°38'917.9
2018-Jan-07 20:30N 05°34' E 000°29'917.8
2018-Jan-07 20:01N 05°34' E 000°20'917.7
2018-Jan-07 19:31N 05°33' E 000°11'815.6
2018-Jan-07 19:01N 05°33' E 000°03'5 9.7
2018-Jan-07 18:30N 05°38' E 000°01'1 1.1
2018-Jan-07 18:00N 05°38' E 000°00'0 0.0
2018-Jan-07 17:30N 05°38' E 000°00'0 0.0
2018-Jan-07 17:00N 05°38' E 000°00'0 0.0
2018-Jan-07 16:30N 05°38' E 000°00'0 0.0
2018-Jan-07 16:00N 05°38' E 000°00'0 0.0
2018-Jan-07 15:30N 05°38' E 000°00'0 0.0
2018-Jan-07 15:00N 05°38' E 000°00'0 0.0
2018-Jan-07 14:28N 05°38' E 000°00'0 0.0
2018-Jan-07 13:58N 05°38' E 000°00'0 0.0
2018-Jan-07 13:28N 05°38' E 000°00'0 0.0
2018-Jan-07 12:58N 05°38' E 000°00'0 0.0
2018-Jan-07 12:28N 05°38' E 000°00'0 0.0
2018-Jan-07 11:58N 05°38' E 000°00'0 0.0
2018-Jan-07 11:25N 05°38' E 000°00'0 0.0
2018-Jan-07 10:58N 05°38' E 000°00'0 0.0
2018-Jan-07 10:28N 05°38' E 000°00'0 0.0
2018-Jan-07 09:58N 05°38' E 000°00'0 0.0
2018-Jan-07 09:28N 05°38' E 000°00'0 0.0
2018-Jan-07 08:58N 05°38' E 000°00'0 0.0
2018-Jan-07 08:28N 05°38' E 000°00'0 0.0
2018-Jan-07 07:58N 05°38' E 000°00'0 0.0
2018-Jan-07 07:28N 05°38' E 000°00'0 0.0
2018-Jan-07 06:58N 05°38' E 000°00'0 0.3
2018-Jan-07 06:28N 05°38' E 000°01'0 0.0
2018-Jan-07 05:58N 05°38' E 000°01'0 0.0
2018-Jan-07 05:28N 05°38' E 000°01'0 0.0
2018-Jan-07 04:58N 05°38' E 000°01'0 0.0
2018-Jan-07 04:28N 05°38' E 000°01'0 0.0
2018-Jan-07 03:58N 05°38' E 000°01'0 0.0
2018-Jan-07 03:28N 05°38' E 000°01'0 0.0
2018-Jan-07 02:58N 05°38' E 000°01'0 0.0
2018-Jan-07 02:28N 05°38' E 000°01'0 0.0
2018-Jan-07 01:58N 05°38' E 000°01'0 0.0
2018-Jan-07 01:28N 05°38' E 000°01'0 0.0
2018-Jan-07 00:28N 05°38' E 000°01'0 0.0
2018-Jan-06 23:58N 05°38' E 000°01'0 0.0
2018-Jan-06 23:28N 05°38' E 000°01'0 0.0
2018-Jan-06 22:58N 05°38' E 000°01'0 0.0
2018-Jan-06 22:28N 05°38' E 000°01'0 0.0
2018-Jan-06 21:55N 05°38' E 000°01'0 0.0
2018-Jan-06 21:28N 05°38' E 000°01'0 0.0
2018-Jan-06 20:58N 05°38' E 000°01'0 0.0
2018-Jan-06 20:28N 05°38' E 000°01'0 0.0
2018-Jan-06 19:58N 05°38' E 000°01'0 0.0
2018-Jan-06 19:28N 05°38' E 000°01'0 0.0
2018-Jan-06 18:58N 05°38' E 000°01'0 0.0
2018-Jan-06 18:28N 05°38' E 000°01'0 0.0
2018-Jan-06 17:58N 05°38' E 000°01'0 0.0
2018-Jan-06 17:28N 05°38' E 000°01'0 0.0
2018-Jan-06 16:58N 05°38' E 000°01'0 0.0
2018-Jan-06 16:28N 05°38' E 000°01'0 0.0
2018-Jan-06 15:58N 05°38' E 000°01'0 0.0
2018-Jan-06 15:28N 05°38' E 000°01'0 0.0
2018-Jan-06 14:58N 05°38' E 000°01'0 0.0
2018-Jan-06 14:28N 05°38' E 000°01'0 0.0
2018-Jan-06 13:58N 05°38' E 000°01'0 0.0
2018-Jan-06 13:28N 05°38' E 000°01'1 2.2
2018-Jan-06 13:00N 05°38' E 000°02'2 3.3
2018-Jan-06 12:30N 05°37' E 000°03'0 0.2
2018-Jan-06 12:00N 05°37' E 000°03'2 3.5
2018-Jan-06 11:30N 05°35' E 000°03'3 5.1
2018-Jan-06 11:00N 05°34' E 000°01'1 1.4
2018-Jan-06 10:29N 05°33' E 000°00'0 0.0
2018-Jan-06 09:59N 05°33' E 000°00'0 0.1
2018-Jan-06 09:29N 05°33' E 000°00'0 0.0
2018-Jan-06 08:59N 05°33' E 000°00'0 0.0
2018-Jan-06 08:29N 05°33' E 000°00'0 0.0
2018-Jan-06 07:59N 05°33' E 000°00'0 0.0
2018-Jan-06 07:26N 05°33' E 000°00'0 0.0
2018-Jan-06 06:59N 05°33' E 000°00'0 0.0
2018-Jan-06 06:29N 05°33' W 000°00'0 0.0
2018-Jan-06 05:59N 05°33' W 000°00'0 0.0
2018-Jan-06 05:29N 05°33' W 000°00'0 0.0
2018-Jan-06 04:59N 05°33' W 000°00'0 0.0
2018-Jan-06 04:29N 05°33' W 000°00'0 0.0
2018-Jan-06 03:59N 05°33' W 000°00'0 0.0
2018-Jan-06 03:29N 05°33' W 000°00'0 0.0
2018-Jan-06 02:59N 05°33' W 000°00'0 0.0
2018-Jan-06 02:29N 05°33' W 000°00'0 0.0
2018-Jan-06 01:59N 05°33' W 000°00'0 0.0
2018-Jan-06 01:29N 05°33' W 000°00'0 0.0
2018-Jan-06 00:59N 05°33' W 000°00'0 0.0
2018-Jan-06 00:29N 05°33' W 000°00'0 0.0
2018-Jan-05 23:59N 05°33' W 000°00'0 0.0
2018-Jan-05 23:29N 05°33' W 000°00'0 0.0
2018-Jan-05 22:59N 05°33' W 000°00'0 0.0
2018-Jan-05 22:29N 05°33' W 000°00'0 0.0
2018-Jan-05 21:59N 05°33' W 000°00'0 0.0
2018-Jan-05 21:29N 05°33' W 000°00'0 0.0
2018-Jan-05 20:59N 05°33' W 000°00'0 0.0
2018-Jan-05 20:29N 05°33' W 000°00'0 0.0
2018-Jan-05 19:59N 05°33' W 000°00'0 0.0
2018-Jan-05 19:29N 05°33' W 000°00'0 0.0
2018-Jan-05 18:59N 05°33' W 000°00'0 0.0
2018-Jan-05 18:29N 05°33' W 000°00'0 0.0
2018-Jan-05 17:59N 05°33' W 000°00'0 0.0
2018-Jan-05 17:29N 05°33' W 000°00'0 0.1
2018-Jan-05 16:59N 05°33' W 000°00'0 0.0
2018-Jan-05 16:29N 05°33' W 000°00'0 0.0
2018-Jan-05 15:59N 05°33' W 000°00'0 0.0
2018-Jan-05 15:29N 05°33' W 000°00'0 0.1
2018-Jan-05 15:00N 05°33' E 000°00'1 1.9
2018-Jan-05 14:30N 05°33' W 000°00'510.4
2018-Jan-05 14:00N 05°28' W 000°02'815.8
2018-Jan-05 13:30N 05°23' W 000°08'816.3
2018-Jan-05 13:00N 05°18' W 000°15'3616.3
2018-Jan-05 10:48N 05°01' W 000°47'516.6
2018-Jan-05 10:30N 04°59' W 000°51'816.0
2018-Jan-05 10:00N 04°55' W 000°59'815.8
2018-Jan-05 09:29N 04°53' W 001°06'815.8
2018-Jan-05 09:00N 04°50' W 001°14'3915.9
2018-Jan-05 06:33N 04°36' W 001°50'0 9.8
2018-Jan-05 06:31N 04°36' W 001°50'2 3.3
2018-Jan-05 06:00N 04°37' W 001°52'916.3
2018-Jan-05 05:29N 04°33' W 001°59'  
Track history (hours):
 
Tides and Currents Weather Stations Pressure Air Temp Water Temp Dewpoint Dewpoint Depression Visibility Wind Speed Wind Dir Waves Ship Positions

Cala Paguro

Last reported at 2018-Jan-09 23:33 UTC. Time now 2018-Jan-19 13:33 UTC.
Position N 04°54' W 001°04'.
Warning: this ship's position is 9 days out of date.

Length 172 m; draft 7.5 m.

Type: Cargo ship. MMSI: 636017440.

Date/timePositionNaut miles runAvg speedWind from/ knotsBaromVisibWave heightAir tempDewpointWater temp
2018-Jan-09 23:33N 04°54' W 001°04'216.4
2018-Jan-09 23:27N 04°55' W 001°02'1416.2
2018-Jan-09 22:35N 04°59' W 000°49'416.0
2018-Jan-09 22:20N 05°00' W 000°45'516.1
2018-Jan-09 22:00N 05°02' W 000°40'1716.1
2018-Jan-09 20:55N 05°09' W 000°24'716.2
2018-Jan-09 20:30N 05°14' W 000°19'816.3
2018-Jan-09 20:00N 05°19' W 000°13'816.5
2018-Jan-09 19:30N 05°23' W 000°06'816.7
2018-Jan-09 19:00N 05°28' E 000°01'816.6
2018-Jan-09 18:30N 05°31' E 000°09'816.6
2018-Jan-09 18:01N 05°34' E 000°17'816.8
2018-Jan-09 17:30N 05°34' E 000°25'917.0
2018-Jan-09 17:00N 05°34' E 000°34'917.1
2018-Jan-09 16:30N 05°34' E 000°42'917.1
2018-Jan-09 15:57N 05°34' E 000°52'1216.9
2018-Jan-09 15:16N 05°37' E 001°03'616.9
2018-Jan-09 14:55N 05°39' E 001°09'817.6
2018-Jan-09 14:28N 05°42' E 001°16'1617.9
2018-Jan-09 13:34N 05°48' E 001°31'218.2
2018-Jan-09 13:26N 05°49' E 001°34'818.2
2018-Jan-09 12:59N 05°52' E 001°41'3118.3
2018-Jan-09 11:17N 06°04' E 002°10'918.5
2018-Jan-09 10:47N 06°07' E 002°19'15 1.3
2018-Jan-08 23:32N 06°21' E 002°25'0 0.0
2018-Jan-08 23:20N 06°21' E 002°25'0 0.0
2018-Jan-08 18:50N 06°21' E 002°25'0 0.0
2018-Jan-08 18:26N 06°21' E 002°25'0 0.0
2018-Jan-08 17:02N 06°21' E 002°25'0 0.0
2018-Jan-08 16:56N 06°21' E 002°25'10 0.9
2018-Jan-08 05:46N 06°11' E 002°27'8612.1
2018-Jan-07 22:40N 05°37' E 001°08'717.7
2018-Jan-07 22:15N 05°36' E 001°00'917.7
2018-Jan-07 21:45N 05°36' E 000°51'517.7
2018-Jan-07 21:27N 05°35' E 000°46'818.1
2018-Jan-07 20:59N 05°34' E 000°38'917.9
2018-Jan-07 20:30N 05°34' E 000°29'917.8
2018-Jan-07 20:01N 05°34' E 000°20'917.7
2018-Jan-07 19:31N 05°33' E 000°11'815.6
2018-Jan-07 19:01N 05°33' E 000°03'5 9.7
2018-Jan-07 18:30N 05°38' E 000°01'1 1.1
2018-Jan-07 18:00N 05°38' E 000°00'0 0.0
2018-Jan-07 17:30N 05°38' E 000°00'0 0.0
2018-Jan-07 17:00N 05°38' E 000°00'0 0.0
2018-Jan-07 16:30N 05°38' E 000°00'0 0.0
2018-Jan-07 16:00N 05°38' E 000°00'0 0.0
2018-Jan-07 15:30N 05°38' E 000°00'0 0.0
2018-Jan-07 15:00N 05°38' E 000°00'0 0.0
2018-Jan-07 14:28N 05°38' E 000°00'0 0.0
2018-Jan-07 13:58N 05°38' E 000°00'0 0.0
2018-Jan-07 13:28N 05°38' E 000°00'0 0.0
2018-Jan-07 12:58N 05°38' E 000°00'0 0.0
2018-Jan-07 12:28N 05°38' E 000°00'0 0.0
2018-Jan-07 11:58N 05°38' E 000°00'0 0.0
2018-Jan-07 11:25N 05°38' E 000°00'0 0.0
2018-Jan-07 10:58N 05°38' E 000°00'0 0.0
2018-Jan-07 10:28N 05°38' E 000°00'0 0.0
2018-Jan-07 09:58N 05°38' E 000°00'0 0.0
2018-Jan-07 09:28N 05°38' E 000°00'0 0.0
2018-Jan-07 08:58N 05°38' E 000°00'0 0.0
2018-Jan-07 08:28N 05°38' E 000°00'0 0.0
2018-Jan-07 07:58N 05°38' E 000°00'0 0.0
2018-Jan-07 07:28N 05°38' E 000°00'0 0.0
2018-Jan-07 06:58N 05°38' E 000°00'0 0.3
2018-Jan-07 06:28N 05°38' E 000°01'0 0.0
2018-Jan-07 05:58N 05°38' E 000°01'0 0.0
2018-Jan-07 05:28N 05°38' E 000°01'0 0.0
2018-Jan-07 04:58N 05°38' E 000°01'0 0.0
2018-Jan-07 04:28N 05°38' E 000°01'0 0.0
2018-Jan-07 03:58N 05°38' E 000°01'0 0.0
2018-Jan-07 03:28N 05°38' E 000°01'0 0.0
2018-Jan-07 02:58N 05°38' E 000°01'0 0.0
2018-Jan-07 02:28N 05°38' E 000°01'0 0.0
2018-Jan-07 01:58N 05°38' E 000°01'0 0.0
2018-Jan-07 01:28N 05°38' E 000°01'0 0.0
2018-Jan-07 00:28N 05°38' E 000°01'0 0.0
2018-Jan-06 23:58N 05°38' E 000°01'0 0.0
2018-Jan-06 23:28N 05°38' E 000°01'0 0.0
2018-Jan-06 22:58N 05°38' E 000°01'0 0.0
2018-Jan-06 22:28N 05°38' E 000°01'0 0.0
2018-Jan-06 21:55N 05°38' E 000°01'0 0.0
2018-Jan-06 21:28N 05°38' E 000°01'0 0.0
2018-Jan-06 20:58N 05°38' E 000°01'0 0.0
2018-Jan-06 20:28N 05°38' E 000°01'0 0.0
2018-Jan-06 19:58N 05°38' E 000°01'0 0.0
2018-Jan-06 19:28N 05°38' E 000°01'0 0.0
2018-Jan-06 18:58N 05°38' E 000°01'0 0.0
2018-Jan-06 18:28N 05°38' E 000°01'0 0.0
2018-Jan-06 17:58N 05°38' E 000°01'0 0.0
2018-Jan-06 17:28N 05°38' E 000°01'0 0.0
2018-Jan-06 16:58N 05°38' E 000°01'0 0.0
2018-Jan-06 16:28N 05°38' E 000°01'0 0.0
2018-Jan-06 15:58N 05°38' E 000°01'0 0.0
2018-Jan-06 15:28N 05°38' E 000°01'0 0.0
2018-Jan-06 14:58N 05°38' E 000°01'0 0.0
2018-Jan-06 14:28N 05°38' E 000°01'0 0.0
2018-Jan-06 13:58N 05°38' E 000°01'0 0.0
2018-Jan-06 13:28N 05°38' E 000°01'1 2.2
2018-Jan-06 13:00N 05°38' E 000°02'2 3.3
2018-Jan-06 12:30N 05°37' E 000°03'0 0.2
2018-Jan-06 12:00N 05°37' E 000°03'2 3.5
2018-Jan-06 11:30N 05°35' E 000°03'3 5.1
2018-Jan-06 11:00N 05°34' E 000°01'1 1.4
2018-Jan-06 10:29N 05°33' E 000°00'0 0.0
2018-Jan-06 09:59N 05°33' E 000°00'0 0.1
2018-Jan-06 09:29N 05°33' E 000°00'0 0.0
2018-Jan-06 08:59N 05°33' E 000°00'0 0.0
2018-Jan-06 08:29N 05°33' E 000°00'0 0.0
2018-Jan-06 07:59N 05°33' E 000°00'0 0.0
2018-Jan-06 07:26N 05°33' E 000°00'0 0.0
2018-Jan-06 06:59N 05°33' E 000°00'0 0.0
2018-Jan-06 06:29N 05°33' W 000°00'0 0.0
2018-Jan-06 05:59N 05°33' W 000°00'0 0.0
2018-Jan-06 05:29N 05°33' W 000°00'0 0.0
2018-Jan-06 04:59N 05°33' W 000°00'0 0.0
2018-Jan-06 04:29N 05°33' W 000°00'0 0.0
2018-Jan-06 03:59N 05°33' W 000°00'0 0.0
2018-Jan-06 03:29N 05°33' W 000°00'0 0.0
2018-Jan-06 02:59N 05°33' W 000°00'0 0.0
2018-Jan-06 02:29N 05°33' W 000°00'0 0.0
2018-Jan-06 01:59N 05°33' W 000°00'0 0.0
2018-Jan-06 01:29N 05°33' W 000°00'0 0.0
2018-Jan-06 00:59N 05°33' W 000°00'0 0.0
2018-Jan-06 00:29N 05°33' W 000°00'0 0.0
2018-Jan-05 23:59N 05°33' W 000°00'0 0.0
2018-Jan-05 23:29N 05°33' W 000°00'0 0.0
2018-Jan-05 22:59N 05°33' W 000°00'0 0.0
2018-Jan-05 22:29N 05°33' W 000°00'0 0.0
2018-Jan-05 21:59N 05°33' W 000°00'0 0.0
2018-Jan-05 21:29N 05°33' W 000°00'0 0.0
2018-Jan-05 20:59N 05°33' W 000°00'0 0.0
2018-Jan-05 20:29N 05°33' W 000°00'0 0.0
2018-Jan-05 19:59N 05°33' W 000°00'0 0.0
2018-Jan-05 19:29N 05°33' W 000°00'0 0.0
2018-Jan-05 18:59N 05°33' W 000°00'0 0.0
2018-Jan-05 18:29N 05°33' W 000°00'0 0.0
2018-Jan-05 17:59N 05°33' W 000°00'0 0.0
2018-Jan-05 17:29N 05°33' W 000°00'0 0.1
2018-Jan-05 16:59N 05°33' W 000°00'0 0.0
2018-Jan-05 16:29N 05°33' W 000°00'0 0.0
2018-Jan-05 15:59N 05°33' W 000°00'0 0.0
2018-Jan-05 15:29N 05°33' W 000°00'0 0.1
2018-Jan-05 15:00N 05°33' E 000°00'1 1.9
2018-Jan-05 14:30N 05°33' W 000°00'510.4
2018-Jan-05 14:00N 05°28' W 000°02'815.8
2018-Jan-05 13:30N 05°23' W 000°08'816.3
2018-Jan-05 13:00N 05°18' W 000°15'3616.3
2018-Jan-05 10:48N 05°01' W 000°47'516.6
2018-Jan-05 10:30N 04°59' W 000°51'816.0
2018-Jan-05 10:00N 04°55' W 000°59'815.8
2018-Jan-05 09:29N 04°53' W 001°06'815.8
2018-Jan-05 09:00N 04°50' W 001°14'3915.9
2018-Jan-05 06:33N 04°36' W 001°50'0 9.8
2018-Jan-05 06:31N 04°36' W 001°50'2 3.3
2018-Jan-05 06:00N 04°37' W 001°52'916.3
2018-Jan-05 05:29N 04°33' W 001°59'  

Dump ship's entire track history